Terminal Aerodrome Forecast
Issued by NWS

Home | Current Version | Previous Version | Graphics & Text | Print | Product List | Glossary On
Versions: 1 2 3 4 5 6 7 8 9 10 11 12 13 14 15 16 17 18
000
FTUS43 KTOP 080200 AAA
TAFFOE
TAF AMD
KFOE 080255Z 0803/0824 13010KT 6SM -TSRA BKN050CB
      TEMPO 0804/0806 VRB25G45KT 2SM TSRA BKN035CB
     FM080700 36014KT 5SM -SHRA VCTS BKN035CB
     FM081000 36009KT P6SM SCT030 BKN120=

USA.gov is the U.S. government's official web portal to all federal, state and local government web resources and services.